sensor_id;sensor_type;location;lat;lon;timestamp;pressure;altitude;pressure_sealevel;temperature;humidity
9893;BME280;4985;49.092;8.542;2023-03-24T00:01:48;98405.81;;;17.73;52.90
9893;BME280;4985;49.092;8.542;2023-03-24T00:04:15;98403.16;;;17.73;52.88
9893;BME280;4985;49.092;8.542;2023-03-24T00:06:42;98399.44;;;17.74;52.85
9893;BME280;4985;49.092;8.542;2023-03-24T00:09:10;98407.44;;;17.74;52.84
9893;BME280;4985;49.092;8.542;2023-03-24T00:11:37;98398.63;;;17.74;52.85
9893;BME280;4985;49.092;8.542;2023-03-24T00:14:04;98397.81;;;17.73;52.87
9893;BME280;4985;49.092;8.542;2023-03-24T00:16:30;98400.72;;;17.72;52.88
9893;BME280;4985;49.092;8.542;2023-03-24T00:18:59;98389.25;;;17.71;52.88
9893;BME280;4985;49.092;8.542;2023-03-24T00:21:26;98379.44;;;17.72;52.88
9893;BME280;4985;49.092;8.542;2023-03-24T00:23:54;98369.81;;;17.71;52.88
9893;BME280;4985;49.092;8.542;2023-03-24T00:26:24;98362.66;;;17.71;52.88
9893;BME280;4985;49.092;8.542;2023-03-24T00:28:53;98358.12;;;17.72;52.88
9893;BME280;4985;49.092;8.542;2023-03-24T00:31:21;98352.81;;;17.72;52.88
9893;BME280;4985;49.092;8.542;2023-03-24T00:33:48;98349.09;;;17.73;52.85
9893;BME280;4985;49.092;8.542;2023-03-24T00:36:17;98347.03;;;17.75;52.83
9893;BME280;4985;49.092;8.542;2023-03-24T00:38:45;98346.22;;;17.74;52.82
9893;BME280;4985;49.092;8.542;2023-03-24T00:41:12;98343.31;;;17.76;52.80
9893;BME280;4985;49.092;8.542;2023-03-24T00:43:43;98339.84;;;17.75;52.78
9893;BME280;4985;49.092;8.542;2023-03-24T00:46:11;98338.00;;;17.76;52.77
9893;BME280;4985;49.092;8.542;2023-03-24T00:48:51;98336.38;;;17.75;52.79
9893;BME280;4985;49.092;8.542;2023-03-24T00:51:22;98335.56;;;17.74;52.79
9893;BME280;4985;49.092;8.542;2023-03-24T00:53:49;98322.25;;;17.74;52.79
9893;BME280;4985;49.092;8.542;2023-03-24T00:56:23;98322.25;;;17.74;52.79
9893;BME280;4985;49.092;8.542;2023-03-24T00:58:51;98316.13;;;17.74;52.77
9893;BME280;4985;49.092;8.542;2023-03-24T01:01:22;98305.47;;;17.74;52.77
9893;BME280;4985;49.092;8.542;2023-03-24T01:03:49;98303.63;;;17.74;52.78
9893;BME280;4985;49.092;8.542;2023-03-24T01:06:16;98305.47;;;17.74;52.76
9893;BME280;4985;49.092;8.542;2023-03-24T01:08:46;98299.91;;;17.75;52.75
9893;BME280;4985;49.092;8.542;2023-03-24T01:11:14;98295.41;;;17.76;52.74
9893;BME280;4985;49.092;8.542;2023-03-24T01:13:41;98297.25;;;17.75;52.73
9893;BME280;4985;49.092;8.542;2023-03-24T01:16:09;98277.72;;;17.70;52.74
9893;BME280;4985;49.092;8.542;2023-03-24T01:18:36;98281.28;;;17.75;52.74
9893;BME280;4985;49.092;8.542;2023-03-24T01:21:05;98281.28;;;17.75;52.72
9893;BME280;4985;49.092;8.542;2023-03-24T01:23:33;98280.47;;;17.75;52.74
9893;BME280;4985;49.092;8.542;2023-03-24T01:26:03;98278.63;;;17.75;52.73
9893;BME280;4985;49.092;8.542;2023-03-24T01:28:31;98279.44;;;17.76;52.71
9893;BME280;4985;49.092;8.542;2023-03-24T01:30:57;98279.66;;;17.74;52.73
9893;BME280;4985;49.092;8.542;2023-03-24T01:33:26;98284.19;;;17.74;52.76
9893;BME280;4985;49.092;8.542;2023-03-24T01:35:52;98282.56;;;17.73;52.75
9893;BME280;4985;49.092;8.542;2023-03-24T01:38:19;98270.87;;;17.74;52.76
9893;BME280;4985;49.092;8.542;2023-03-24T01:40:46;98270.87;;;17.74;52.75
9893;BME280;4985;49.092;8.542;2023-03-24T01:43:17;98260.22;;;17.74;52.75
9893;BME280;4985;49.092;8.542;2023-03-24T01:45:58;98248.53;;;17.75;52.73
9893;BME280;4985;49.092;8.542;2023-03-24T01:48:30;98253.63;;;17.77;52.70
9893;BME280;4985;49.092;8.542;2023-03-24T01:51:00;98257.34;;;17.75;52.69
9893;BME280;4985;49.092;8.542;2023-03-24T01:53:29;98237.66;;;17.77;52.67
9893;BME280;4985;49.092;8.542;2023-03-24T01:55:58;98239.50;;;17.76;52.68
9893;BME280;4985;49.092;8.542;2023-03-24T01:58:27;98244.84;;;17.76;52.67
9893;BME280;4985;49.092;8.542;2023-03-24T02:00:55;98244.03;;;17.75;52.68
9893;BME280;4985;49.092;8.542;2023-03-24T02:03:23;98240.56;;;17.75;52.69
9893;BME280;4985;49.092;8.542;2023-03-24T02:05:53;98246.91;;;17.74;52.73
9893;BME280;4985;49.092;8.542;2023-03-24T02:08:25;98232.81;;;17.73;52.75
9893;BME280;4985;49.092;8.542;2023-03-24T02:10:54;98239.19;;;17.72;52.76
9893;BME280;4985;49.092;8.542;2023-03-24T02:13:22;98227.47;;;17.73;52.77
9893;BME280;4985;49.092;8.542;2023-03-24T02:15:57;98228.28;;;17.74;52.75
9893;BME280;4985;49.092;8.542;2023-03-24T02:18:32;98223.22;;;17.72;52.75
9893;BME280;4985;49.092;8.542;2023-03-24T02:21:29;98210.72;;;17.73;52.74
9893;BME280;4985;49.092;8.542;2023-03-24T02:27:12;98217.66;;;17.74;52.72
9893;BME280;4985;49.092;8.542;2023-03-24T02:30:12;98223.22;;;17.72;52.73
9893;BME280;4985;49.092;8.542;2023-03-24T02:33:20;98217.31;;;17.70;52.75
9893;BME280;4985;49.092;8.542;2023-03-24T02:36:30;98224.50;;;17.70;52.79
9893;BME280;4985;49.092;8.542;2023-03-24T02:42:22;98220.22;;;17.69;52.86
9893;BME280;4985;49.092;8.542;2023-03-24T02:45:00;98208.97;;;17.67;52.88
9893;BME280;4985;49.092;8.542;2023-03-24T02:47:36;98206.50;;;17.65;52.90
9893;BME280;4985;49.092;8.542;2023-03-24T02:50:15;98206.31;;;17.67;52.90
9893;BME280;4985;49.092;8.542;2023-03-24T02:52:48;98212.66;;;17.66;52.89
9893;BME280;4985;49.092;8.542;2023-03-24T02:55:20;98210.78;;;17.66;52.90
9893;BME280;4985;49.092;8.542;2023-03-24T02:57:54;98215.31;;;17.66;52.91
9893;BME280;4985;49.092;8.542;2023-03-24T03:00:27;98200.38;;;17.65;52.94
9893;BME280;4985;49.092;8.542;2023-03-24T03:02:59;98204.91;;;17.64;52.93
9893;BME280;4985;49.092;8.542;2023-03-24T03:05:31;98213.25;;;17.68;52.91
9893;BME280;4985;49.092;8.542;2023-03-24T03:08:03;98193.00;;;17.67;52.88
9893;BME280;4985;49.092;8.542;2023-03-24T03:10:33;98196.25;;;17.69;52.85
9893;BME280;4985;49.092;8.542;2023-03-24T03:13:06;98188.03;;;17.70;52.82
9893;BME280;4985;49.092;8.542;2023-03-24T03:15:37;98186.19;;;17.71;52.78
9893;BME280;4985;49.092;8.542;2023-03-24T03:18:08;98179.81;;;17.72;52.75
9893;BME280;4985;49.092;8.542;2023-03-24T03:20:39;98175.53;;;17.71;52.73
9893;BME280;4985;49.092;8.542;2023-03-24T03:23:16;98187.81;;;17.72;52.72
9893;BME280;4985;49.092;8.542;2023-03-24T03:25:48;98190.47;;;17.72;52.74
9893;BME280;4985;49.092;8.542;2023-03-24T03:28:22;98185.63;;;17.69;52.77
9893;BME280;4985;49.092;8.542;2023-03-24T03:30:52;98174.13;;;17.68;52.80
9893;BME280;4985;49.092;8.542;2023-03-24T03:33:21;98182.34;;;17.67;52.83
9893;BME280;4985;49.092;8.542;2023-03-24T03:35:53;98176.44;;;17.65;52.84
9893;BME280;4985;49.092;8.542;2023-03-24T03:38:27;98177.25;;;17.65;52.88
9893;BME280;4985;49.092;8.542;2023-03-24T03:40:59;98183.84;;;17.63;52.91
9893;BME280;4985;49.092;8.542;2023-03-24T03:43:30;98189.19;;;17.63;52.92
9893;BME280;4985;49.092;8.542;2023-03-24T03:45:59;98187.56;;;17.62;52.95
9893;BME280;4985;49.092;8.542;2023-03-24T03:48:26;98191.03;;;17.62;52.96
9893;BME280;4985;49.092;8.542;2023-03-24T03:50:54;98192.63;;;17.63;52.94
9893;BME280;4985;49.092;8.542;2023-03-24T03:53:25;98196.09;;;17.64;52.92
9893;BME280;4985;49.092;8.542;2023-03-24T03:55:52;98199.34;;;17.66;52.92
9893;BME280;4985;49.092;8.542;2023-03-24T03:58:21;98206.50;;;17.65;52.90
9893;BME280;4985;49.092;8.542;2023-03-24T04:00:49;98211.84;;;17.65;52.90
9893;BME280;4985;49.092;8.542;2023-03-24T04:03:31;98211.03;;;17.65;52.93
9893;BME280;4985;49.092;8.542;2023-03-24T04:06:07;98215.78;;;17.63;52.93
9893;BME280;4985;49.092;8.542;2023-03-24T04:08:46;98219.50;;;17.62;52.97
9893;BME280;4985;49.092;8.542;2023-03-24T04:11:42;98228.53;;;17.61;52.97
9893;BME280;4985;49.092;8.542;2023-03-24T04:14:39;98238.13;;;17.62;52.99
9893;BME280;4985;49.092;8.542;2023-03-24T04:17:17;98236.50;;;17.61;53.00
9893;BME280;4985;49.092;8.542;2023-03-24T04:19:58;98255.94;;;17.61;53.01
9893;BME280;4985;49.092;8.542;2023-03-24T04:22:38;98285.44;;;17.60;53.02
9893;BME280;4985;49.092;8.542;2023-03-24T04:25:13;98286.50;;;17.59;53.04
9893;BME280;4985;49.092;8.542;2023-03-24T04:27:44;98299.78;;;17.59;53.05
9893;BME280;4985;49.092;8.542;2023-03-24T04:30:15;98293.66;;;17.58;53.08
9893;BME280;4985;49.092;8.542;2023-03-24T04:32:50;98284.88;;;17.58;53.09
9893;BME280;4985;49.092;8.542;2023-03-24T04:35:25;98278.75;;;17.57;53.10
9893;BME280;4985;49.092;8.542;2023-03-24T04:37:58;98295.53;;;17.58;53.10
9893;BME280;4985;49.092;8.542;2023-03-24T04:40:30;98305.34;;;17.57;53.09
9893;BME280;4985;49.092;8.542;2023-03-24T04:42:59;98307.22;;;17.57;53.11
9893;BME280;4985;49.092;8.542;2023-03-24T04:45:29;98309.06;;;17.56;53.12
9893;BME280;4985;49.092;8.542;2023-03-24T04:48:01;98335.66;;;17.56;53.14
9893;BME280;4985;49.092;8.542;2023-03-24T04:50:29;98331.34;;;17.55;53.15
9893;BME280;4985;49.092;8.542;2023-03-24T04:52:56;98341.19;;;17.55;53.16
9893;BME280;4985;49.092;8.542;2023-03-24T04:55:56;98334.97;;;17.49;53.20
9893;BME280;4985;49.092;8.542;2023-03-24T04:58:26;98344.09;;;17.53;53.21
9893;BME280;4985;49.092;8.542;2023-03-24T05:00:52;98362.94;;;17.52;53.25
9893;BME280;4985;49.092;8.542;2023-03-24T05:03:22;98362.94;;;17.52;53.27
9893;BME280;4985;49.092;8.542;2023-03-24T05:05:50;98362.37;;;17.50;53.31
9893;BME280;4985;49.092;8.542;2023-03-24T05:08:17;98372.22;;;17.49;53.32
9893;BME280;4985;49.092;8.542;2023-03-24T05:10:44;98369.56;;;17.49;53.34
9893;BME280;4985;49.092;8.542;2023-03-24T05:13:12;98367.12;;;17.48;53.36
9893;BME280;4985;49.092;8.542;2023-03-24T05:15:39;98362.84;;;17.46;53.37
9893;BME280;4985;49.092;8.542;2023-03-24T05:18:05;98363.66;;;17.47;53.39
9893;BME280;4985;49.092;8.542;2023-03-24T05:20:33;98358.31;;;17.47;53.39
9893;BME280;4985;49.092;8.542;2023-03-24T05:23:00;98356.47;;;17.48;53.38
9893;BME280;4985;49.092;8.542;2023-03-24T05:25:27;98355.66;;;17.47;53.39
9893;BME280;4985;49.092;8.542;2023-03-24T05:27:54;98350.34;;;17.47;53.39
9893;BME280;4985;49.092;8.542;2023-03-24T05:30:20;98345.03;;;17.47;53.39
9893;BME280;4985;49.092;8.542;2023-03-24T05:32:47;98359.12;;;17.48;53.39
9893;BME280;4985;49.092;8.542;2023-03-24T05:35:14;98351.16;;;17.48;53.39
9893;BME280;4985;49.092;8.542;2023-03-24T05:37:42;98359.12;;;17.48;53.39
9893;BME280;4985;49.092;8.542;2023-03-24T05:40:09;98356.47;;;17.48;53.39
9893;BME280;4985;49.092;8.542;2023-03-24T05:42:36;98354.87;;;17.46;53.38
9893;BME280;4985;49.092;8.542;2023-03-24T05:45:03;98345.03;;;17.47;53.38
9893;BME280;4985;49.092;8.542;2023-03-24T05:47:30;98333.56;;;17.46;53.38
9893;BME280;4985;49.092;8.542;2023-03-24T05:49:57;98338.91;;;17.46;53.38
9893;BME280;4985;49.092;8.542;2023-03-24T05:52:23;98341.31;;;17.48;53.36
9893;BME280;4985;49.092;8.542;2023-03-24T05:54:51;98343.97;;;17.48;53.34
9893;BME280;4985;49.092;8.542;2023-03-24T05:57:19;98335.19;;;17.48;53.33
9893;BME280;4985;49.092;8.542;2023-03-24T05:59:46;98330.69;;;17.48;53.32
9893;BME280;4985;49.092;8.542;2023-03-24T06:02:12;98323.16;;;17.45;53.30
9893;BME280;4985;49.092;8.542;2023-03-24T06:04:39;98332.06;;;17.51;53.28
9893;BME280;4985;49.092;8.542;2023-03-24T06:07:10;98332.63;;;17.53;53.26
9893;BME280;4985;49.092;8.542;2023-03-24T06:09:37;98322.00;;;17.53;53.23
9893;BME280;4985;49.092;8.542;2023-03-24T06:12:08;98318.28;;;17.54;53.20
9893;BME280;4985;49.092;8.542;2023-03-24T06:14:35;98311.13;;;17.54;53.17
9893;BME280;4985;49.092;8.542;2023-03-24T06:17:02;98305.78;;;17.54;53.13
9893;BME280;4985;49.092;8.542;2023-03-24T06:19:29;98316.22;;;17.56;53.13
9893;BME280;4985;49.092;8.542;2023-03-24T06:21:58;98308.25;;;17.56;53.11
9893;BME280;4985;49.092;8.542;2023-03-24T06:24:28;98311.72;;;17.56;53.09
9893;BME280;4985;49.092;8.542;2023-03-24T06:26:55;98320.50;;;17.57;53.07
9893;BME280;4985;49.092;8.542;2023-03-24T06:29:29;98327.69;;;17.56;53.07
9893;BME280;4985;49.092;8.542;2023-03-24T06:31:55;98321.56;;;17.56;53.08
9893;BME280;4985;49.092;8.542;2023-03-24T06:34:22;98333.81;;;17.57;53.07
9893;BME280;4985;49.092;8.542;2023-03-24T06:36:49;98333.81;;;17.57;53.06
9893;BME280;4985;49.092;8.542;2023-03-24T06:39:16;98329.31;;;17.57;53.07
9893;BME280;4985;49.092;8.542;2023-03-24T06:41:43;98337.53;;;17.56;53.08
9893;BME280;4985;49.092;8.542;2023-03-24T06:44:10;98345.50;;;17.56;53.08
9893;BME280;4985;49.092;8.542;2023-03-24T06:46:38;98348.16;;;17.56;53.10
9893;BME280;4985;49.092;8.542;2023-03-24T06:49:04;98347.31;;;17.55;53.10
9893;BME280;4985;49.092;8.542;2023-03-24T06:51:31;98342.84;;;17.56;53.11
9893;BME280;4985;49.092;8.542;2023-03-24T06:53:58;98349.97;;;17.55;53.11
9893;BME280;4985;49.092;8.542;2023-03-24T06:56:24;98348.16;;;17.56;53.10
9893;BME280;4985;49.092;8.542;2023-03-24T06:58:51;98351.50;;;17.51;53.09
9893;BME280;4985;49.092;8.542;2023-03-24T07:01:18;98353.69;;;17.54;53.12
9893;BME280;4985;49.092;8.542;2023-03-24T07:03:46;98359.81;;;17.55;53.11
9893;BME280;4985;49.092;8.542;2023-03-24T07:06:13;98370.47;;;17.55;53.13
9893;BME280;4985;49.092;8.542;2023-03-24T07:08:39;98371.50;;;17.54;53.14
9893;BME280;4985;49.092;8.542;2023-03-24T07:11:06;98373.34;;;17.53;53.16
9893;BME280;4985;49.092;8.542;2023-03-24T07:13:34;98369.87;;;17.53;53.18
9893;BME280;4985;49.092;8.542;2023-03-24T07:16:01;98367.22;;;17.53;53.19
9893;BME280;4985;49.092;8.542;2023-03-24T07:18:28;98375.44;;;17.51;53.22
9893;BME280;4985;49.092;8.542;2023-03-24T07:20:56;98380.53;;;17.53;53.22
9893;BME280;4985;49.092;8.542;2023-03-24T07:23:22;98371.16;;;17.50;53.24
9893;BME280;4985;49.092;8.542;2023-03-24T07:25:51;98377.28;;;17.51;53.24
9893;BME280;4985;49.092;8.542;2023-03-24T07:28:19;98376.50;;;17.50;53.26
9893;BME280;4985;49.092;8.542;2023-03-24T07:30:45;98375.69;;;17.50;53.28
9893;BME280;4985;49.092;8.542;2023-03-24T07:33:12;98375.69;;;17.50;53.28
9893;BME280;4985;49.092;8.542;2023-03-24T07:35:39;98386.31;;;17.50;53.31
9893;BME280;4985;49.092;8.542;2023-03-24T07:38:07;98380.19;;;17.49;53.29
9893;BME280;4985;49.092;8.542;2023-03-24T07:40:35;98387.13;;;17.50;53.29
9893;BME280;4985;49.092;8.542;2023-03-24T07:43:03;98386.31;;;17.50;53.30
9893;BME280;4985;49.092;8.542;2023-03-24T07:45:30;98379.16;;;17.50;53.28
9893;BME280;4985;49.092;8.542;2023-03-24T07:47:58;98388.75;;;17.51;53.29
9893;BME280;4985;49.092;8.542;2023-03-24T07:50:26;98383.44;;;17.51;53.27
9893;BME280;4985;49.092;8.542;2023-03-24T07:52:53;98376.25;;;17.52;53.27
9893;BME280;4985;49.092;8.542;2023-03-24T07:55:22;98376.25;;;17.52;53.26
9893;BME280;4985;49.092;8.542;2023-03-24T07:57:49;98384.22;;;17.52;53.25
9893;BME280;4985;49.092;8.542;2023-03-24T08:00:17;98362.13;;;17.51;53.27
9893;BME280;4985;49.092;8.542;2023-03-24T08:02:47;98346.97;;;17.52;53.25
9893;BME280;4985;49.092;8.542;2023-03-24T08:05:14;98343.28;;;17.53;53.25
9893;BME280;4985;49.092;8.542;2023-03-24T08:07:45;98329.97;;;17.53;53.23
9893;BME280;4985;49.092;8.542;2023-03-24T08:10:15;98300.72;;;17.53;53.23
9893;BME280;4985;49.092;8.542;2023-03-24T08:12:43;98267.75;;;17.54;53.19
9893;BME280;4985;49.092;8.542;2023-03-24T08:15:10;98273.88;;;17.54;53.18
9893;BME280;4985;49.092;8.542;2023-03-24T08:17:37;98305.78;;;17.54;53.18
9893;BME280;4985;49.092;8.542;2023-03-24T08:20:07;98320.94;;;17.54;53.22
9893;BME280;4985;49.092;8.542;2023-03-24T08:22:36;98322.81;;;17.53;53.26
9893;BME280;4985;49.092;8.542;2023-03-24T08:25:04;98320.38;;;17.52;53.29
9893;BME280;4985;49.092;8.542;2023-03-24T08:27:30;98335.53;;;17.51;53.32
9893;BME280;4985;49.092;8.542;2023-03-24T08:29:58;98334.72;;;17.51;53.35
9893;BME280;4985;49.092;8.542;2023-03-24T08:32:25;98350.69;;;17.51;53.37
9893;BME280;4985;49.092;8.542;2023-03-24T08:34:52;98346.41;;;17.50;53.40
9893;BME280;4985;49.092;8.542;2023-03-24T08:37:19;98343.75;;;17.50;53.41
9893;BME280;4985;49.092;8.542;2023-03-24T08:39:45;98343.75;;;17.50;53.42
9893;BME280;4985;49.092;8.542;2023-03-24T08:42:12;98349.88;;;17.50;53.43
9893;BME280;4985;49.092;8.542;2023-03-24T08:44:39;98343.75;;;17.50;53.45
9893;BME280;4985;49.092;8.542;2023-03-24T08:47:07;98349.06;;;17.50;53.45
9893;BME280;4985;49.092;8.542;2023-03-24T08:49:34;98356.25;;;17.49;53.47
9893;BME280;4985;49.092;8.542;2023-03-24T08:52:00;98365.03;;;17.50;53.49
9893;BME280;4985;49.092;8.542;2023-03-24T08:54:27;98375.69;;;17.50;53.50
9893;BME280;4985;49.092;8.542;2023-03-24T08:56:53;98358.09;;;17.49;53.50
9893;BME280;4985;49.092;8.542;2023-03-24T08:59:20;98364.22;;;17.49;53.50
9893;BME280;4985;49.092;8.542;2023-03-24T09:01:46;98362.37;;;17.50;53.50
9893;BME280;4985;49.092;8.542;2023-03-24T09:04:15;98353.59;;;17.49;53.50
9893;BME280;4985;49.092;8.542;2023-03-24T09:06:41;98361.34;;;17.51;53.53
9893;BME280;4985;49.092;8.542;2023-03-24T09:09:08;98360.53;;;17.50;53.52
9893;BME280;4985;49.092;8.542;2023-03-24T09:11:34;98364.22;;;17.49;53.56
9893;BME280;4985;49.092;8.542;2023-03-24T09:14:01;98365.28;;;17.48;53.59
9893;BME280;4985;49.092;8.542;2023-03-24T09:16:28;98373.25;;;17.48;53.60
9893;BME280;4985;49.092;8.542;2023-03-24T09:18:54;98370.59;;;17.48;53.61
9893;BME280;4985;49.092;8.542;2023-03-24T09:21:22;98381.00;;;17.50;53.62
9893;BME280;4985;49.092;8.542;2023-03-24T09:23:49;98382.03;;;17.49;53.60
9893;BME280;4985;49.092;8.542;2023-03-24T09:26:16;98394.31;;;17.50;53.59
9893;BME280;4985;49.092;8.542;2023-03-24T09:28:42;98374.88;;;17.49;53.58
9893;BME280;4985;49.092;8.542;2023-03-24T09:31:09;98375.69;;;17.50;53.57
9893;BME280;4985;49.092;8.542;2023-03-24T09:33:36;98382.63;;;17.51;53.59
9893;BME280;4985;49.092;8.542;2023-03-24T09:36:03;98376.50;;;17.50;53.57
9893;BME280;4985;49.092;8.542;2023-03-24T09:38:31;98378.34;;;17.50;53.60
9893;BME280;4985;49.092;8.542;2023-03-24T09:41:00;98373.81;;;17.50;53.61
9893;BME280;4985;49.092;8.542;2023-03-24T09:43:32;98367.69;;;17.50;53.62
9893;BME280;4985;49.092;8.542;2023-03-24T09:46:02;98363.19;;;17.50;53.61
9893;BME280;4985;49.092;8.542;2023-03-24T09:48:34;98364.00;;;17.51;53.61
9893;BME280;4985;49.092;8.542;2023-03-24T09:51:02;98362.13;;;17.51;53.60
9893;BME280;4985;49.092;8.542;2023-03-24T09:53:36;98365.59;;;17.52;53.60
9893;BME280;4985;49.092;8.542;2023-03-24T09:56:11;98357.63;;;17.52;53.60
9893;BME280;4985;49.092;8.542;2023-03-24T09:58:39;98352.31;;;17.52;53.59
9893;BME280;4985;49.092;8.542;2023-03-24T10:01:11;98353.91;;;17.53;53.60
9893;BME280;4985;49.092;8.542;2023-03-24T10:03:38;98347.78;;;17.52;53.59
9893;BME280;4985;49.092;8.542;2023-03-24T10:06:08;98355.53;;;17.54;53.58
9893;BME280;4985;49.092;8.542;2023-03-24T10:08:40;98359.00;;;17.54;53.59
9893;BME280;4985;49.092;8.542;2023-03-24T10:11:14;98356.34;;;17.54;53.60
9893;BME280;4985;49.092;8.542;2023-03-24T10:13:50;98366.19;;;17.54;53.59
9893;BME280;4985;49.092;8.542;2023-03-24T10:16:26;98352.88;;;17.54;53.59
9893;BME280;4985;49.092;8.542;2023-03-24T10:18:58;98351.84;;;17.55;53.59
9893;BME280;4985;49.092;8.542;2023-03-24T10:21:26;98365.16;;;17.55;53.59
9893;BME280;4985;49.092;8.542;2023-03-24T10:24:06;98372.31;;;17.54;53.58
9893;BME280;4985;49.092;8.542;2023-03-24T10:26:41;98377.63;;;17.54;53.59
9893;BME280;4985;49.092;8.542;2023-03-24T10:29:20;98371.50;;;17.54;53.60
9893;BME280;4985;49.092;8.542;2023-03-24T10:31:50;98387.47;;;17.54;53.61
9893;BME280;4985;49.092;8.542;2023-03-24T10:34:18;98370.47;;;17.55;53.62
9893;BME280;4985;49.092;8.542;2023-03-24T10:36:44;98359.00;;;17.54;53.62
9893;BME280;4985;49.092;8.542;2023-03-24T10:39:15;98372.31;;;17.54;53.65
9893;BME280;4985;49.092;8.542;2023-03-24T10:41:42;98378.44;;;17.55;53.64
9893;BME280;4985;49.092;8.542;2023-03-24T10:44:11;98373.12;;;17.55;53.64
9893;BME280;4985;49.092;8.542;2023-03-24T10:46:43;98380.09;;;17.56;53.64
9893;BME280;4985;49.092;8.542;2023-03-24T10:49:15;98381.09;;;17.55;53.62
9893;BME280;4985;49.092;8.542;2023-03-24T10:51:45;98383.78;;;17.55;53.63
9893;BME280;4985;49.092;8.542;2023-03-24T10:54:17;98372.91;;;17.44;53.64
9893;BME280;4985;49.092;8.542;2023-03-24T10:56:45;98383.78;;;17.55;53.65
9893;BME280;4985;49.092;8.542;2023-03-24T10:59:21;98379.25;;;17.55;53.67
9893;BME280;4985;49.092;8.542;2023-03-24T11:01:55;98379.25;;;17.55;53.68
9893;BME280;4985;49.092;8.542;2023-03-24T11:04:23;98389.91;;;17.55;53.69
9893;BME280;4985;49.092;8.542;2023-03-24T11:06:57;98397.88;;;17.55;53.73
9893;BME280;4985;49.092;8.542;2023-03-24T11:09:27;98385.41;;;17.56;53.72
9893;BME280;4985;49.092;8.542;2023-03-24T11:11:54;98395.22;;;17.55;53.75
9893;BME280;4985;49.092;8.542;2023-03-24T11:14:24;98404.03;;;17.56;53.77
9893;BME280;4985;49.092;8.542;2023-03-24T11:16:52;98398.72;;;17.56;53.79
9893;BME280;4985;49.092;8.542;2023-03-24T11:19:20;98399.72;;;17.55;53.82
9893;BME280;4985;49.092;8.542;2023-03-24T11:21:48;98404.03;;;17.56;53.83
9893;BME280;4985;49.092;8.542;2023-03-24T11:24:16;98391.56;;;17.56;53.83
9893;BME280;4985;49.092;8.542;2023-03-24T11:26:49;98403.00;;;17.57;53.83
9893;BME280;4985;49.092;8.542;2023-03-24T11:29:21;98424.28;;;17.57;53.84
9893;BME280;4985;49.092;8.542;2023-03-24T11:31:52;98414.47;;;17.57;53.86
9893;BME280;4985;49.092;8.542;2023-03-24T11:34:22;98412.59;;;17.58;53.88
9893;BME280;4985;49.092;8.542;2023-03-24T11:36:52;98425.75;;;17.53;53.90
9893;BME280;4985;49.092;8.542;2023-03-24T11:39:22;98416.06;;;17.58;53.90
9893;BME280;4985;49.092;8.542;2023-03-24T11:41:58;98426.72;;;17.58;53.91
9893;BME280;4985;49.092;8.542;2023-03-24T11:44:30;98423.00;;;17.59;53.94
9893;BME280;4985;49.092;8.542;2023-03-24T11:46:59;98418.34;;;17.55;53.95
9893;BME280;4985;49.092;8.542;2023-03-24T11:49:30;98426.34;;;17.55;53.94
9893;BME280;4985;49.092;8.542;2023-03-24T11:51:59;98445.13;;;17.60;53.93
9893;BME280;4985;49.092;8.542;2023-03-24T11:54:30;98436.09;;;17.61;53.92
9893;BME280;4985;49.092;8.542;2023-03-24T11:57:02;98439.31;;;17.63;53.93
9893;BME280;4985;49.092;8.542;2023-03-24T11:59:36;98436.66;;;17.63;53.91
9893;BME280;4985;49.092;8.542;2023-03-24T12:02:15;98439.31;;;17.63;53.92
9893;BME280;4985;49.092;8.542;2023-03-24T12:05:08;98434.00;;;17.63;53.94
9893;BME280;4985;49.092;8.542;2023-03-24T12:10:37;98425.78;;;17.64;53.93
9893;BME280;4985;49.092;8.542;2023-03-24T12:13:09;98419.66;;;17.64;53.92
9893;BME280;4985;49.092;8.542;2023-03-24T12:15:49;98460.97;;;17.66;53.92
9893;BME280;4985;49.092;8.542;2023-03-24T12:18:30;98486.75;;;17.66;53.88
9893;BME280;4985;49.092;8.542;2023-03-24T12:21:09;98510.72;;;17.66;53.89
9893;BME280;4985;49.092;8.542;2023-03-24T12:23:45;98520.78;;;17.64;53.91
9893;BME280;4985;49.092;8.542;2023-03-24T12:26:19;98510.13;;;17.64;53.91
9893;BME280;4985;49.092;8.542;2023-03-24T12:28:56;98512.00;;;17.63;53.92
9893;BME280;4985;49.092;8.542;2023-03-24T12:31:56;98501.22;;;17.58;53.92
9893;BME280;4985;49.092;8.542;2023-03-24T12:34:54;98508.50;;;17.63;53.92
9893;BME280;4985;49.092;8.542;2023-03-24T12:37:32;98523.44;;;17.64;53.92
9893;BME280;4985;49.092;8.542;2023-03-24T12:40:24;98513.59;;;17.64;53.91
9893;BME280;4985;49.092;8.542;2023-03-24T12:42:59;98518.69;;;17.66;53.89
9893;BME280;4985;49.092;8.542;2023-03-24T12:45:36;98516.03;;;17.66;53.86
9893;BME280;4985;49.092;8.542;2023-03-24T12:48:36;98509.69;;;17.67;53.83
9893;BME280;4985;49.092;8.542;2023-03-24T12:51:11;98516.66;;;17.68;53.81
9893;BME280;4985;49.092;8.542;2023-03-24T12:53:52;98519.31;;;17.68;53.79
9893;BME280;4985;49.092;8.542;2023-03-24T12:56:25;98520.97;;;17.69;53.75
9893;BME280;4985;49.092;8.542;2023-03-24T12:59:00;98514.59;;;17.70;53.71
9893;BME280;4985;49.092;8.542;2023-03-24T13:01:32;98523.37;;;17.70;53.70
9893;BME280;4985;49.092;8.542;2023-03-24T13:04:06;98505.56;;;17.71;53.68
9893;BME280;4985;49.092;8.542;2023-03-24T13:06:38;98503.72;;;17.71;53.67
9893;BME280;4985;49.092;8.542;2023-03-24T13:09:13;98503.94;;;17.70;53.65
9893;BME280;4985;49.092;8.542;2023-03-24T13:11:50;98499.06;;;17.67;53.64
9893;BME280;4985;49.092;8.542;2023-03-24T13:14:22;98508.81;;;17.73;53.63
9893;BME280;4985;49.092;8.542;2023-03-24T13:16:55;98517.84;;;17.72;53.61
9893;BME280;4985;49.092;8.542;2023-03-24T13:19:26;98514.13;;;17.73;53.60
9893;BME280;4985;49.092;8.542;2023-03-24T13:21:53;98516.56;;;17.74;53.60
9893;BME280;4985;49.092;8.542;2023-03-24T13:24:22;98491.69;;;17.69;53.58
9893;BME280;4985;49.092;8.542;2023-03-24T13:26:56;98504.28;;;17.73;53.57
9893;BME280;4985;49.092;8.542;2023-03-24T13:29:49;98502.44;;;17.74;53.57
9893;BME280;4985;49.092;8.542;2023-03-24T13:32:31;98504.88;;;17.75;53.56
9893;BME280;4985;49.092;8.542;2023-03-24T13:35:05;98498.75;;;17.75;53.55
9893;BME280;4985;49.092;8.542;2023-03-24T13:37:35;98503.03;;;17.76;53.56
9893;BME280;4985;49.092;8.542;2023-03-24T13:40:08;98508.34;;;17.76;53.57
9893;BME280;4985;49.092;8.542;2023-03-24T13:42:42;98508.34;;;17.76;53.57
9893;BME280;4985;49.092;8.542;2023-03-24T13:45:22;98507.53;;;17.75;53.58
9893;BME280;4985;49.092;8.542;2023-03-24T13:48:01;98511.00;;;17.76;53.60
9893;BME280;4985;49.092;8.542;2023-03-24T13:50:30;98507.53;;;17.75;53.61
9893;BME280;4985;49.092;8.542;2023-03-24T13:53:04;98505.69;;;17.76;53.61